createdAt,value
2022-12-13T00:01:27.253Z,22.63
2022-12-13T00:03:54.458Z,16.63
2022-12-13T00:06:20.866Z,12.95
2022-12-13T00:08:47.305Z,16.70
2022-12-13T00:11:14.507Z,11.13
2022-12-13T00:13:41.833Z,10.38
2022-12-13T00:16:11.184Z,9.80
2022-12-13T00:18:37.788Z,35.08
2022-12-13T00:21:05.058Z,15.68
2022-12-13T00:23:31.446Z,10.25
2022-12-13T00:26:02.210Z,10.48
2022-12-13T00:28:28.516Z,8.55
2022-12-13T00:30:57.291Z,15.60
2022-12-13T00:33:23.688Z,49.20
2022-12-13T00:35:49.968Z,38.20
2022-12-13T00:38:16.365Z,43.20
2022-12-13T00:40:42.745Z,78.28
2022-12-13T00:43:09.075Z,56.83
2022-12-13T00:45:35.463Z,29.23
2022-12-13T00:48:01.872Z,16.33
2022-12-13T00:50:28.200Z,12.43
2022-12-13T00:52:54.499Z,19.70
2022-12-13T00:55:20.864Z,15.13
2022-12-13T00:57:47.201Z,9.77
2022-12-13T01:00:13.644Z,10.65
2022-12-13T01:02:41.753Z,9.32
2022-12-13T01:05:08.338Z,18.02
2022-12-13T01:07:34.674Z,13.35
2022-12-13T01:10:01.231Z,10.02
2022-12-13T01:12:27.625Z,9.05
2022-12-13T01:14:56.204Z,9.13
2022-12-13T01:17:23.319Z,21.13
2022-12-13T01:19:49.604Z,11.38
2022-12-13T01:22:16.093Z,10.40
2022-12-13T01:24:42.588Z,12.82
2022-12-13T01:27:09.119Z,7.38
2022-12-13T01:29:35.570Z,19.17
2022-12-13T01:32:02.048Z,13.23
2022-12-13T01:34:28.562Z,7.80
2022-12-13T01:36:58.242Z,10.82
2022-12-13T01:39:26.639Z,17.98
2022-12-13T01:41:59.958Z,26.30
2022-12-13T01:44:46.862Z,16.27
2022-12-13T01:47:13.815Z,20.05
2022-12-13T01:49:40.147Z,10.63
2022-12-13T01:52:08.537Z,21.48
2022-12-13T01:54:37.796Z,26.27
2022-12-13T01:57:06.889Z,18.75
2022-12-13T01:59:37.832Z,13.02
2022-12-13T02:02:04.976Z,13.88
2022-12-13T02:04:37.602Z,18.30
2022-12-13T02:07:11.950Z,26.75
2022-12-13T02:09:38.989Z,21.40
2022-12-13T02:12:05.448Z,50.22
2022-12-13T02:14:32.888Z,34.30
2022-12-13T02:17:02.276Z,43.97
2022-12-13T02:19:47.555Z,27.80
2022-12-13T02:22:40.301Z,34.28
2022-12-13T02:25:16.252Z,27.65
2022-12-13T02:28:01.257Z,28.27
2022-12-13T02:30:44.819Z,30.15
2022-12-13T02:33:21.297Z,20.90
2022-12-13T02:35:53.042Z,18.02
2022-12-13T02:38:31.633Z,15.30
2022-12-13T02:41:02.411Z,14.65
2022-12-13T02:43:33.615Z,21.08
2022-12-13T02:46:01.659Z,13.35
2022-12-13T02:48:29.869Z,11.48
2022-12-13T02:50:57.160Z,17.40
2022-12-13T02:53:24.230Z,15.77
2022-12-13T02:55:50.604Z,24.05
2022-12-13T02:58:20.057Z,16.13
2022-12-13T03:00:54.329Z,27.77
2022-12-13T03:03:36.500Z,24.50
2022-12-13T03:06:34.014Z,14.55
2022-12-13T03:09:25.363Z,28.75
2022-12-13T03:12:28.448Z,14.65
2022-12-13T03:15:00.826Z,18.63
2022-12-13T03:17:28.340Z,14.20
2022-12-13T03:19:54.737Z,14.30
2022-12-13T03:22:21.407Z,10.25
2022-12-13T03:24:47.753Z,8.65
2022-12-13T03:27:14.240Z,9.40
2022-12-13T03:29:40.574Z,13.68
2022-12-13T03:32:06.921Z,8.82
2022-12-13T03:34:43.558Z,8.77
2022-12-13T03:37:11.971Z,6.07
2022-12-13T03:39:38.358Z,11.30
2022-12-13T03:42:04.763Z,11.25
2022-12-13T03:44:31.728Z,8.27
2022-12-13T03:46:58.166Z,6.93
2022-12-13T03:49:27.265Z,4.72
2022-12-13T03:52:02.194Z,8.73
2022-12-13T03:54:28.480Z,11.45
2022-12-13T03:56:54.860Z,10.02
2022-12-13T03:59:21.362Z,9.25
2022-12-13T04:01:48.381Z,9.35
2022-12-13T04:04:14.784Z,20.40
2022-12-13T04:06:41.188Z,13.27
2022-12-13T04:09:07.533Z,10.05
2022-12-13T04:11:54.257Z,14.85
2022-12-13T04:14:22.894Z,10.10
2022-12-13T04:16:50.340Z,16.23
2022-12-13T04:19:23.851Z,10.27
2022-12-13T04:21:50.727Z,10.80
2022-12-13T04:24:17.164Z,8.88
2022-12-13T04:26:43.452Z,8.85
2022-12-13T04:29:09.732Z,5.50
2022-12-13T04:31:36.227Z,9.95
2022-12-13T04:34:02.709Z,9.77
2022-12-13T04:36:31.703Z,10.00
2022-12-13T04:39:00.519Z,7.00
2022-12-13T04:41:27.188Z,11.05
2022-12-13T04:44:01.220Z,8.93
2022-12-13T04:46:27.556Z,7.18
2022-12-13T04:48:53.843Z,9.38
2022-12-13T04:51:20.241Z,12.07
2022-12-13T04:53:46.534Z,22.15
2022-12-13T04:56:12.823Z,28.50
2022-12-13T04:58:39.213Z,18.40
2022-12-13T05:01:09.091Z,23.40
2022-12-13T05:03:35.832Z,19.52
2022-12-13T05:06:06.333Z,14.00
2022-12-13T05:08:52.840Z,14.35
2022-12-13T05:11:19.258Z,14.80
2022-12-13T05:13:49.532Z,13.10
2022-12-13T05:16:16.083Z,11.10
2022-12-13T05:18:42.725Z,11.25
2022-12-13T05:21:10.247Z,8.80
2022-12-13T05:23:36.921Z,17.58
2022-12-13T05:26:03.557Z,16.88
2022-12-13T05:28:30.426Z,14.40
2022-12-13T05:30:58.459Z,10.27
2022-12-13T05:33:25.566Z,11.20
2022-12-13T05:35:56.343Z,11.85
2022-12-13T05:38:26.350Z,13.00
2022-12-13T05:40:52.652Z,16.40
2022-12-13T05:43:21.509Z,15.05
2022-12-13T05:45:48.296Z,15.63
2022-12-13T05:48:14.636Z,27.23
2022-12-13T05:50:50.492Z,16.25
2022-12-13T05:53:30.593Z,21.05
2022-12-13T05:56:00.781Z,18.55
2022-12-13T05:58:27.234Z,12.75
2022-12-13T06:01:07.016Z,15.27
2022-12-13T06:03:33.428Z,14.40
2022-12-13T06:06:03.796Z,16.13
2022-12-13T06:08:31.113Z,26.88
2022-12-13T06:11:10.821Z,18.58
2022-12-13T06:13:42.359Z,17.73
2022-12-13T06:16:22.548Z,16.20
2022-12-13T06:18:52.551Z,21.38
2022-12-13T06:21:21.112Z,20.63
2022-12-13T06:23:47.496Z,18.35
2022-12-13T06:26:13.883Z,17.50
2022-12-13T06:28:40.174Z,17.67
2022-12-13T06:31:06.597Z,27.70
2022-12-13T06:33:36.629Z,30.65
2022-12-13T06:36:03.833Z,19.75
2022-12-13T06:38:31.170Z,19.52
2022-12-13T06:41:11.845Z,30.27
2022-12-13T06:43:38.357Z,21.25
2022-12-13T06:46:05.466Z,18.90
2022-12-13T06:48:32.128Z,15.73
2022-12-13T06:51:05.275Z,15.77
2022-12-13T06:53:31.972Z,16.33
2022-12-13T06:56:02.950Z,17.77
2022-12-13T06:58:29.239Z,22.57
2022-12-13T07:01:23.831Z,17.15
2022-12-13T07:03:51.111Z,21.33
2022-12-13T07:06:19.558Z,28.25
2022-12-13T07:08:53.320Z,27.88
2022-12-13T07:11:20.950Z,15.68
2022-12-13T07:13:47.240Z,26.00
2022-12-13T07:16:13.700Z,29.92
2022-12-13T07:18:40.505Z,24.27
2022-12-13T07:21:07.639Z,21.85
2022-12-13T07:23:37.613Z,29.27
2022-12-13T07:26:04.168Z,24.00
2022-12-13T07:28:34.390Z,35.05
2022-12-13T07:31:01.915Z,36.83
2022-12-13T07:33:29.824Z,34.80
2022-12-13T07:36:12.672Z,28.85
2022-12-13T07:38:39.176Z,35.95
2022-12-13T07:41:05.838Z,28.00
2022-12-13T07:43:32.794Z,23.50
2022-12-13T07:45:59.921Z,27.35
2022-12-13T07:48:26.872Z,32.20
2022-12-13T07:50:54.794Z,19.52
2022-12-13T07:53:22.030Z,21.42
2022-12-13T07:55:48.607Z,15.52
2022-12-13T07:58:15.124Z,18.45
2022-12-13T08:00:46.248Z,19.42
2022-12-13T08:03:25.571Z,18.77
2022-12-13T08:06:02.800Z,12.35
2022-12-13T08:08:30.857Z,15.63
2022-12-13T08:11:12.349Z,18.17
2022-12-13T08:13:39.253Z,13.68
2022-12-13T08:16:28.439Z,18.95
2022-12-13T08:19:01.063Z,23.83
2022-12-13T08:21:53.430Z,18.73
2022-12-13T08:24:15.861Z,15.07
2022-12-13T08:26:42.301Z,23.88
2022-12-13T08:29:08.836Z,15.82
2022-12-13T08:31:35.173Z,17.73
2022-12-13T08:34:01.581Z,16.40
2022-12-13T08:36:28.531Z,13.90
2022-12-13T08:38:55.872Z,12.25
2022-12-13T08:41:22.504Z,12.73
2022-12-13T08:43:48.841Z,13.45
2022-12-13T08:46:15.317Z,9.73
2022-12-13T08:48:43.811Z,17.05
2022-12-13T08:51:12.918Z,20.85
2022-12-13T08:53:40.597Z,18.15
2022-12-13T08:56:10.729Z,18.80
2022-12-13T08:58:38.015Z,18.27
2022-12-13T09:01:08.441Z,20.95
2022-12-13T09:03:35.298Z,22.20
2022-12-13T09:06:09.032Z,18.45
2022-12-13T09:08:35.510Z,15.93
2022-12-13T09:11:11.456Z,17.10
2022-12-13T09:13:49.023Z,20.23
2022-12-13T09:16:23.254Z,29.75
2022-12-13T09:18:55.335Z,19.27
2022-12-13T09:24:01.642Z,14.75
2022-12-13T09:26:28.446Z,17.55
2022-12-13T09:28:54.791Z,12.80
2022-12-13T09:31:21.322Z,14.02
2022-12-13T09:33:48.200Z,13.88
2022-12-13T09:36:16.179Z,19.35
2022-12-13T09:38:42.717Z,23.90
2022-12-13T09:41:19.440Z,17.40
2022-12-13T09:43:48.600Z,17.73
2022-12-13T09:46:34.758Z,14.77
2022-12-13T09:49:13.206Z,21.02
2022-12-13T09:51:45.894Z,32.75
2022-12-13T09:54:22.634Z,36.05
2022-12-13T09:56:54.548Z,32.53
2022-12-13T10:01:47.222Z,28.63
2022-12-13T10:04:15.429Z,25.00
2022-12-13T10:06:41.781Z,28.58
2022-12-13T10:09:11.246Z,28.98
2022-12-13T10:11:50.342Z,19.90
2022-12-13T10:14:19.933Z,22.73
2022-12-13T10:16:48.918Z,15.27
2022-12-13T10:19:29.369Z,13.18
2022-12-13T10:22:01.974Z,11.77
2022-12-13T10:24:37.462Z,22.63
2022-12-13T10:27:11.991Z,29.55
2022-12-13T10:29:56.585Z,21.50
2022-12-13T10:32:23.051Z,22.98
2022-12-13T10:34:49.450Z,18.00
2022-12-13T10:37:25.083Z,12.30
2022-12-13T10:39:51.371Z,12.38
2022-12-13T10:42:22.584Z,10.85
2022-12-13T10:45:05.855Z,7.30
2022-12-13T10:49:59.661Z,25.77
2022-12-13T10:52:33.430Z,24.52
2022-12-13T10:55:22.808Z,15.02
2022-12-13T10:57:54.116Z,24.80
2022-12-13T11:00:35.758Z,15.82
2022-12-13T11:03:02.323Z,18.00
2022-12-13T11:05:29.800Z,16.40
2022-12-13T11:08:11.559Z,14.07
2022-12-13T11:10:38.004Z,26.75
2022-12-13T11:13:06.270Z,21.33
2022-12-13T11:15:34.613Z,13.50
2022-12-13T11:18:08.715Z,11.13
2022-12-13T11:20:38.606Z,18.33
2022-12-13T11:23:05.065Z,20.88
2022-12-13T11:25:41.941Z,17.48
2022-12-13T11:28:29.397Z,13.80
2022-12-13T11:31:10.975Z,20.50
2022-12-13T11:33:47.626Z,24.70
2022-12-13T11:36:23.065Z,21.60
2022-12-13T11:39:08.082Z,29.42
2022-12-13T11:41:37.263Z,24.63
2022-12-13T11:44:09.809Z,23.60
2022-12-13T11:46:41.808Z,26.35
2022-12-13T11:51:43.051Z,24.05
2022-12-13T11:54:23.630Z,25.88
2022-12-13T11:56:56.273Z,24.93
2022-12-13T11:59:42.285Z,21.42
2022-12-13T12:02:23.713Z,19.20
2022-12-13T12:05:00.138Z,15.90
2022-12-13T12:07:34.180Z,18.45
2022-12-13T12:10:16.114Z,24.35
2022-12-13T12:12:45.818Z,16.33
2022-12-13T12:15:16.521Z,12.23
2022-12-13T12:17:43.280Z,9.32
2022-12-13T12:20:12.759Z,7.55
2022-12-13T12:22:47.249Z,5.90
2022-12-13T12:25:13.562Z,7.20
2022-12-13T12:27:58.658Z,7.90
2022-12-13T12:30:30.936Z,23.50
2022-12-13T12:33:09.180Z,26.40
2022-12-13T12:35:38.154Z,25.08
2022-12-13T12:38:23.163Z,17.98
2022-12-13T12:41:16.102Z,17.67
2022-12-13T12:43:43.763Z,18.60
2022-12-13T12:46:29.145Z,17.42
2022-12-13T12:49:17.640Z,19.05
2022-12-13T12:51:56.670Z,15.45
2022-12-13T12:54:27.457Z,13.70
2022-12-13T12:57:07.803Z,12.23
2022-12-13T12:59:48.068Z,10.13
2022-12-13T13:02:14.589Z,7.93
2022-12-13T13:04:43.578Z,12.93
2022-12-13T13:07:23.214Z,19.58
2022-12-13T13:09:50.894Z,14.25
2022-12-13T13:12:28.762Z,12.90
2022-12-13T13:14:57.038Z,12.23
2022-12-13T13:17:23.384Z,13.27
2022-12-13T13:20:01.430Z,11.77
2022-12-13T13:22:43.282Z,22.30
2022-12-13T13:25:20.544Z,17.10
2022-12-13T13:27:47.327Z,18.70
2022-12-13T13:30:24.352Z,21.08
2022-12-13T13:32:52.011Z,17.50
2022-12-13T13:35:30.551Z,19.92
2022-12-13T13:37:58.222Z,14.20
2022-12-13T13:40:30.065Z,12.73
2022-12-13T13:43:12.836Z,12.02
2022-12-13T13:45:57.645Z,10.53
2022-12-13T13:48:42.948Z,13.25
2022-12-13T13:51:12.316Z,12.65
2022-12-13T13:53:54.284Z,6.53
2022-12-13T13:56:23.707Z,6.13
2022-12-13T13:58:50.042Z,10.30
2022-12-13T14:01:35.319Z,12.52
2022-12-13T14:04:07.733Z,12.88
2022-12-13T14:06:49.107Z,17.05
2022-12-13T14:09:30.730Z,13.55
2022-12-13T14:12:03.261Z,15.18
2022-12-13T14:14:32.782Z,17.23
2022-12-13T14:17:14.761Z,7.80
2022-12-13T14:20:07.666Z,11.77
2022-12-13T14:22:40.060Z,9.68
2022-12-13T14:25:10.252Z,11.02
2022-12-13T14:28:00.415Z,8.55
2022-12-13T14:30:29.222Z,13.57
2022-12-13T14:32:56.797Z,17.38
2022-12-13T14:35:46.039Z,18.17
2022-12-13T14:38:20.348Z,28.20
2022-12-13T14:40:55.516Z,18.33
2022-12-13T14:43:26.402Z,10.95
2022-12-13T14:45:57.596Z,17.45
2022-12-13T14:48:28.261Z,9.90
2022-12-13T14:50:55.893Z,9.53
2022-12-13T14:53:28.048Z,7.47
2022-12-13T14:56:11.624Z,8.38
2022-12-13T14:59:01.892Z,6.60
2022-12-13T15:01:32.295Z,4.70
2022-12-13T15:04:17.390Z,8.43
2022-12-13T15:06:48.416Z,9.95
2022-12-13T15:09:16.058Z,14.63
2022-12-13T15:11:44.083Z,7.07
2022-12-13T15:14:18.446Z,13.32
2022-12-13T15:16:52.474Z,22.45
2022-12-13T15:19:30.062Z,18.30
2022-12-13T15:22:02.401Z,15.02
2022-12-13T15:24:30.989Z,13.95
2022-12-13T15:26:58.703Z,13.73
2022-12-13T15:29:29.693Z,13.68
2022-12-13T15:31:57.419Z,8.65
2022-12-13T15:34:31.889Z,14.02
2022-12-13T15:37:29.659Z,11.45
2022-12-13T15:39:59.206Z,12.02
2022-12-13T15:42:29.959Z,9.57
2022-12-13T15:44:58.194Z,13.48
2022-12-13T15:47:28.800Z,17.77
2022-12-13T15:50:01.068Z,10.93
2022-12-13T15:52:28.494Z,9.68
2022-12-13T15:55:07.684Z,7.43
2022-12-13T15:57:35.220Z,7.88
2022-12-13T16:00:18.779Z,5.60
2022-12-13T16:03:08.652Z,10.10
2022-12-13T16:05:38.196Z,7.32
2022-12-13T16:08:13.977Z,8.43
2022-12-13T16:10:45.958Z,7.97
2022-12-13T16:13:26.471Z,6.72
2022-12-13T16:16:13.066Z,5.72
2022-12-13T16:18:57.802Z,5.57
2022-12-13T16:21:25.335Z,9.07
2022-12-13T16:23:51.753Z,8.95
2022-12-13T16:26:22.441Z,10.20
2022-12-13T16:28:48.828Z,12.75
2022-12-13T16:31:25.576Z,9.23
2022-12-13T16:33:52.467Z,8.32
2022-12-13T16:36:18.786Z,9.27
2022-12-13T16:38:45.835Z,10.50
2022-12-13T16:41:12.253Z,9.93
2022-12-13T16:43:40.662Z,10.57
2022-12-13T16:47:13.038Z,10.65
2022-12-13T16:48:53.675Z,8.75
2022-12-13T16:51:20.476Z,7.78
2022-12-13T16:53:47.452Z,13.55
2022-12-13T16:56:21.658Z,8.77
2022-12-13T16:58:50.277Z,6.43
2022-12-13T17:01:20.488Z,5.68
2022-12-13T17:03:47.069Z,5.53
2022-12-13T17:06:14.306Z,9.65
2022-12-13T17:08:41.136Z,12.63
2022-12-13T17:11:14.697Z,7.68
2022-12-13T17:13:44.916Z,12.63
2022-12-13T17:16:11.556Z,9.63
2022-12-13T17:18:37.984Z,10.70
2022-12-13T17:21:08.068Z,6.63
2022-12-13T17:23:34.653Z,6.70
2022-12-13T17:26:05.299Z,20.30
2022-12-13T17:28:31.741Z,10.85
2022-12-13T17:31:08.785Z,7.60
2022-12-13T17:33:36.606Z,6.22
2022-12-13T17:36:06.610Z,7.88
2022-12-13T17:38:33.052Z,5.70
2022-12-13T17:41:00.759Z,5.28
2022-12-13T17:43:34.428Z,4.50
2022-12-13T17:46:05.687Z,9.02
2022-12-13T17:48:39.183Z,9.07
2022-12-13T17:51:08.529Z,5.68
2022-12-13T17:53:35.773Z,10.20
2022-12-13T17:56:03.706Z,9.38
2022-12-13T17:58:32.156Z,16.27
2022-12-13T18:00:58.857Z,10.13
2022-12-13T18:03:25.664Z,10.15
2022-12-13T18:05:58.664Z,9.57
2022-12-13T18:08:25.407Z,8.80
2022-12-13T18:11:23.571Z,9.48
2022-12-13T18:13:41.902Z,12.57
2022-12-13T18:16:09.594Z,11.23
2022-12-13T18:18:36.035Z,9.35
2022-12-13T18:21:09.624Z,9.00
2022-12-13T18:23:36.095Z,4.78
2022-12-13T18:26:03.340Z,6.55
2022-12-13T18:28:29.966Z,8.30
2022-12-13T18:30:57.141Z,14.95
2022-12-13T18:33:24.207Z,10.70
2022-12-13T18:35:50.951Z,6.05
2022-12-13T18:38:17.317Z,14.65
2022-12-13T18:40:43.665Z,8.50
2022-12-13T18:43:10.096Z,14.05
2022-12-13T18:45:36.475Z,7.68
2022-12-13T18:48:02.781Z,11.77
2022-12-13T18:50:29.199Z,20.73
2022-12-13T18:52:55.533Z,20.65
2022-12-13T18:55:21.826Z,16.27
2022-12-13T18:57:50.068Z,11.02
2022-12-13T19:00:16.838Z,9.57
2022-12-13T19:02:43.254Z,9.98
2022-12-13T19:05:09.931Z,7.75
2022-12-13T19:07:36.223Z,7.22
2022-12-13T19:10:02.592Z,5.97
2022-12-13T19:12:29.020Z,6.20
2022-12-13T19:14:55.376Z,10.90
2022-12-13T19:17:21.772Z,9.85
2022-12-13T19:19:48.460Z,5.25
2022-12-13T19:22:15.858Z,6.70
2022-12-13T19:24:42.338Z,6.40
2022-12-13T19:27:08.746Z,6.05
2022-12-13T19:29:35.159Z,6.82
2022-12-13T19:32:01.509Z,4.50
2022-12-13T19:34:27.828Z,5.35
2022-12-13T19:36:54.324Z,7.43
2022-12-13T19:39:20.855Z,5.88
2022-12-13T19:41:47.351Z,5.47
2022-12-13T19:44:13.761Z,7.35
2022-12-13T19:46:40.204Z,6.25
2022-12-13T19:49:06.724Z,7.13
2022-12-13T19:51:39.036Z,15.55
2022-12-13T19:54:06.191Z,17.33
2022-12-13T19:56:32.703Z,14.10
2022-12-13T19:58:59.020Z,11.48
2022-12-13T20:01:25.343Z,11.60
2022-12-13T20:03:51.865Z,8.40
2022-12-13T20:06:20.096Z,8.30
2022-12-13T20:08:46.500Z,6.10
2022-12-13T20:11:14.948Z,6.32
2022-12-13T20:13:41.362Z,6.20
2022-12-13T20:16:07.735Z,5.07
2022-12-13T20:18:34.252Z,5.88
2022-12-13T20:21:11.760Z,5.70
2022-12-13T20:23:39.081Z,7.57
2022-12-13T20:26:07.490Z,5.97
2022-12-13T20:28:34.163Z,6.70
2022-12-13T20:31:07.965Z,8.50
2022-12-13T20:33:34.642Z,7.90
2022-12-13T20:36:27.624Z,13.68
2022-12-13T20:38:56.107Z,12.65
2022-12-13T20:41:22.871Z,10.00
2022-12-13T20:43:52.949Z,12.90
2022-12-13T20:46:19.348Z,6.55
2022-12-13T20:48:46.951Z,11.25
2022-12-13T20:51:14.389Z,6.22
2022-12-13T20:53:42.210Z,7.15
2022-12-13T20:56:10.925Z,7.65
2022-12-13T20:58:40.138Z,9.48
2022-12-13T21:01:06.889Z,6.70
2022-12-13T21:03:33.412Z,10.30
2022-12-13T21:05:59.917Z,8.20
2022-12-13T21:08:44.838Z,8.50
2022-12-13T21:11:26.588Z,13.00
2022-12-13T21:13:54.373Z,17.52
2022-12-13T21:16:21.035Z,15.98
2022-12-13T21:18:47.517Z,11.52
2022-12-13T21:21:13.941Z,11.35
2022-12-13T21:23:40.234Z,7.25
2022-12-13T21:26:06.625Z,7.80
2022-12-13T21:28:33.041Z,7.80
2022-12-13T21:31:00.264Z,11.00
2022-12-13T21:33:27.542Z,10.98
2022-12-13T21:35:54.267Z,10.43
2022-12-13T21:38:20.629Z,7.80
2022-12-13T21:40:47.928Z,10.93
2022-12-13T21:43:14.795Z,26.00
2022-12-13T21:45:41.786Z,17.02
2022-12-13T21:48:08.176Z,12.93
2022-12-13T21:50:34.579Z,14.60
2022-12-13T21:53:00.884Z,11.70
2022-12-13T21:55:38.842Z,13.30
2022-12-13T21:58:24.585Z,10.05
2022-12-13T22:00:51.127Z,13.30
2022-12-13T22:03:17.523Z,15.23
2022-12-13T22:05:44.586Z,9.90
2022-12-13T22:08:10.919Z,14.00
2022-12-13T22:10:57.221Z,19.80
2022-12-13T22:13:23.591Z,15.30
2022-12-13T22:15:49.869Z,13.48
2022-12-13T22:18:16.273Z,11.80
2022-12-13T22:20:42.745Z,10.63
2022-12-13T22:23:09.051Z,10.60
2022-12-13T22:25:36.123Z,11.88
2022-12-13T22:28:02.461Z,9.35
2022-12-13T22:30:28.829Z,12.32
2022-12-13T22:32:55.163Z,12.05
2022-12-13T22:35:21.557Z,12.95
2022-12-13T22:37:48.716Z,15.18
2022-12-13T22:40:15.383Z,11.82
2022-12-13T22:42:41.680Z,10.77
2022-12-13T22:45:14.745Z,9.35
2022-12-13T22:47:41.149Z,11.15
2022-12-13T22:50:07.772Z,9.90
2022-12-13T22:52:34.343Z,12.20
2022-12-13T22:55:00.807Z,8.90
2022-12-13T22:57:27.185Z,9.05
2022-12-13T22:59:53.543Z,11.73
2022-12-13T23:02:20.017Z,11.18
2022-12-13T23:04:46.376Z,10.85
2022-12-13T23:07:13.866Z,13.63
2022-12-13T23:09:40.198Z,12.63
2022-12-13T23:12:25.195Z,11.27
2022-12-13T23:14:51.571Z,10.40
2022-12-13T23:17:18.048Z,10.00
2022-12-13T23:19:50.150Z,16.85
2022-12-13T23:22:18.656Z,14.25
2022-12-13T23:24:44.956Z,10.25
2022-12-13T23:27:11.293Z,13.82
2022-12-13T23:29:37.744Z,20.92
2022-12-13T23:32:04.566Z,14.35
2022-12-13T23:34:31.002Z,15.25
2022-12-13T23:36:57.470Z,13.27
2022-12-13T23:39:24.178Z,19.98
2022-12-13T23:41:50.512Z,13.93
2022-12-13T23:44:16.889Z,11.93
2022-12-13T23:46:48.411Z,7.10
2022-12-13T23:51:41.866Z,8.38
2022-12-13T23:54:08.251Z,11.60
2022-12-13T23:56:34.609Z,12.75
2022-12-13T23:59:01.052Z,12.27
